sensor_id;sensor_type;location;lat;lon;timestamp;temperature;humidity
13322;DHT22;6730;46.248;6.930;2022-12-07T00:01:22;2.70;99.90
13322;DHT22;6730;46.248;6.930;2022-12-07T00:03:49;2.60;99.90
13322;DHT22;6730;46.248;6.930;2022-12-07T00:06:17;2.30;99.90
13322;DHT22;6730;46.248;6.930;2022-12-07T00:08:44;2.00;99.90
13322;DHT22;6730;46.248;6.930;2022-12-07T00:11:12;1.90;99.90
13322;DHT22;6730;46.248;6.930;2022-12-07T00:13:39;1.90;99.90
13322;DHT22;6730;46.248;6.930;2022-12-07T00:18:34;1.90;99.90
13322;DHT22;6730;46.248;6.930;2022-12-07T00:21:12;1.90;99.90
13322;DHT22;6730;46.248;6.930;2022-12-07T00:23:38;1.90;99.90
13322;DHT22;6730;46.248;6.930;2022-12-07T00:28:51;2.00;99.90
13322;DHT22;6730;46.248;6.930;2022-12-07T00:31:19;1.80;99.90
13322;DHT22;6730;46.248;6.930;2022-12-07T00:33:45;1.60;99.90
13322;DHT22;6730;46.248;6.930;2022-12-07T00:36:15;1.40;99.90
13322;DHT22;6730;46.248;6.930;2022-12-07T00:38:41;1.60;99.90
13322;DHT22;6730;46.248;6.930;2022-12-07T00:41:11;1.70;99.90
13322;DHT22;6730;46.248;6.930;2022-12-07T00:43:37;1.70;99.90
13322;DHT22;6730;46.248;6.930;2022-12-07T00:46:02;1.60;99.90
13322;DHT22;6730;46.248;6.930;2022-12-07T00:48:28;2.00;99.90
13322;DHT22;6730;46.248;6.930;2022-12-07T00:50:54;2.10;99.90
13322;DHT22;6730;46.248;6.930;2022-12-07T00:53:20;2.10;99.90
13322;DHT22;6730;46.248;6.930;2022-12-07T00:55:46;2.00;99.90
13322;DHT22;6730;46.248;6.930;2022-12-07T00:58:12;1.80;99.90
13322;DHT22;6730;46.248;6.930;2022-12-07T01:00:39;1.50;99.90
13322;DHT22;6730;46.248;6.930;2022-12-07T01:03:07;1.80;99.90
13322;DHT22;6730;46.248;6.930;2022-12-07T01:05:33;1.90;99.90
13322;DHT22;6730;46.248;6.930;2022-12-07T01:07:59;1.70;99.90
13322;DHT22;6730;46.248;6.930;2022-12-07T01:10:25;1.70;99.90
13322;DHT22;6730;46.248;6.930;2022-12-07T01:12:51;1.80;99.90
13322;DHT22;6730;46.248;6.930;2022-12-07T01:15:17;1.90;99.90
13322;DHT22;6730;46.248;6.930;2022-12-07T01:17:42;1.80;99.90
13322;DHT22;6730;46.248;6.930;2022-12-07T01:20:08;1.60;99.90
13322;DHT22;6730;46.248;6.930;2022-12-07T01:22:38;1.60;99.90
13322;DHT22;6730;46.248;6.930;2022-12-07T01:25:06;1.70;99.90
13322;DHT22;6730;46.248;6.930;2022-12-07T01:27:35;1.70;99.90
13322;DHT22;6730;46.248;6.930;2022-12-07T01:30:03;1.70;99.90
13322;DHT22;6730;46.248;6.930;2022-12-07T01:32:29;1.60;99.90
13322;DHT22;6730;46.248;6.930;2022-12-07T01:34:54;1.80;99.90
13322;DHT22;6730;46.248;6.930;2022-12-07T01:37:20;1.80;99.90
13322;DHT22;6730;46.248;6.930;2022-12-07T01:39:49;1.70;99.90
13322;DHT22;6730;46.248;6.930;2022-12-07T01:42:14;1.60;99.90
13322;DHT22;6730;46.248;6.930;2022-12-07T01:47:51;1.50;99.90
13322;DHT22;6730;46.248;6.930;2022-12-07T01:50:18;1.50;99.90
13322;DHT22;6730;46.248;6.930;2022-12-07T01:52:45;1.50;99.90
13322;DHT22;6730;46.248;6.930;2022-12-07T01:55:13;1.30;99.90
13322;DHT22;6730;46.248;6.930;2022-12-07T01:57:43;1.30;99.90
13322;DHT22;6730;46.248;6.930;2022-12-07T02:00:12;1.30;99.90
13322;DHT22;6730;46.248;6.930;2022-12-07T02:02:50;1.20;99.90
13322;DHT22;6730;46.248;6.930;2022-12-07T02:05:18;1.20;99.90
13322;DHT22;6730;46.248;6.930;2022-12-07T02:07:46;1.10;99.90
13322;DHT22;6730;46.248;6.930;2022-12-07T02:12:45;1.20;99.90
13322;DHT22;6730;46.248;6.930;2022-12-07T02:15:12;1.00;99.90
13322;DHT22;6730;46.248;6.930;2022-12-07T02:20:54;1.00;99.90
13322;DHT22;6730;46.248;6.930;2022-12-07T02:23:40;1.10;99.90
13322;DHT22;6730;46.248;6.930;2022-12-07T02:29:10;1.20;99.90
13322;DHT22;6730;46.248;6.930;2022-12-07T02:31:40;1.20;99.90
13322;DHT22;6730;46.248;6.930;2022-12-07T02:34:18;1.20;99.90
13322;DHT22;6730;46.248;6.930;2022-12-07T02:36:54;1.50;99.90
13322;DHT22;6730;46.248;6.930;2022-12-07T02:39:43;1.60;99.90
13322;DHT22;6730;46.248;6.930;2022-12-07T02:42:19;1.60;99.90
13322;DHT22;6730;46.248;6.930;2022-12-07T02:44:47;1.80;99.90
13322;DHT22;6730;46.248;6.930;2022-12-07T02:47:15;1.80;99.90
13322;DHT22;6730;46.248;6.930;2022-12-07T02:49:42;1.80;99.90
13322;DHT22;6730;46.248;6.930;2022-12-07T02:52:08;1.80;99.90
13322;DHT22;6730;46.248;6.930;2022-12-07T02:54:34;2.00;99.90
13322;DHT22;6730;46.248;6.930;2022-12-07T03:10:44;2.60;99.90
13322;DHT22;6730;46.248;6.930;2022-12-07T03:18:36;2.40;99.90
13322;DHT22;6730;46.248;6.930;2022-12-07T03:21:08;2.50;99.90
13322;DHT22;6730;46.248;6.930;2022-12-07T03:23:37;2.60;99.90
13322;DHT22;6730;46.248;6.930;2022-12-07T03:26:06;2.60;99.90
13322;DHT22;6730;46.248;6.930;2022-12-07T03:28:37;2.60;99.90
13322;DHT22;6730;46.248;6.930;2022-12-07T03:31:17;2.50;99.90
13322;DHT22;6730;46.248;6.930;2022-12-07T03:36:35;2.40;99.90
13322;DHT22;6730;46.248;6.930;2022-12-07T03:41:47;2.10;99.90
13322;DHT22;6730;46.248;6.930;2022-12-07T03:44:14;2.30;99.90
13322;DHT22;6730;46.248;6.930;2022-12-07T03:46:59;2.30;99.90
13322;DHT22;6730;46.248;6.930;2022-12-07T03:49:36;2.30;99.90
13322;DHT22;6730;46.248;6.930;2022-12-07T03:55:11;2.60;99.90
13322;DHT22;6730;46.248;6.930;2022-12-07T03:57:42;2.70;99.90
13322;DHT22;6730;46.248;6.930;2022-12-07T04:00:09;2.60;99.90
13322;DHT22;6730;46.248;6.930;2022-12-07T04:02:36;2.40;99.90
13322;DHT22;6730;46.248;6.930;2022-12-07T04:05:03;2.20;99.90
13322;DHT22;6730;46.248;6.930;2022-12-07T04:07:29;2.10;99.90
13322;DHT22;6730;46.248;6.930;2022-12-07T04:09:54;2.10;99.90
13322;DHT22;6730;46.248;6.930;2022-12-07T04:12:21;2.10;99.90
13322;DHT22;6730;46.248;6.930;2022-12-07T04:14:47;2.30;99.90
13322;DHT22;6730;46.248;6.930;2022-12-07T04:17:13;2.60;99.90
13322;DHT22;6730;46.248;6.930;2022-12-07T04:19:38;2.80;99.90
13322;DHT22;6730;46.248;6.930;2022-12-07T04:22:04;3.10;99.90
13322;DHT22;6730;46.248;6.930;2022-12-07T04:24:30;3.30;99.90
13322;DHT22;6730;46.248;6.930;2022-12-07T04:26:56;3.50;99.90
13322;DHT22;6730;46.248;6.930;2022-12-07T04:29:23;3.60;99.90
13322;DHT22;6730;46.248;6.930;2022-12-07T04:31:48;3.60;99.90
13322;DHT22;6730;46.248;6.930;2022-12-07T04:34:15;3.50;99.90
13322;DHT22;6730;46.248;6.930;2022-12-07T04:36:42;3.40;99.90
13322;DHT22;6730;46.248;6.930;2022-12-07T04:39:25;3.50;99.90
13322;DHT22;6730;46.248;6.930;2022-12-07T04:41:51;3.50;99.90
13322;DHT22;6730;46.248;6.930;2022-12-07T04:44:18;3.30;99.90
13322;DHT22;6730;46.248;6.930;2022-12-07T04:46:44;3.10;99.90
13322;DHT22;6730;46.248;6.930;2022-12-07T04:49:11;3.30;99.90
13322;DHT22;6730;46.248;6.930;2022-12-07T04:51:37;3.20;99.90
13322;DHT22;6730;46.248;6.930;2022-12-07T04:54:03;3.20;99.90
13322;DHT22;6730;46.248;6.930;2022-12-07T04:56:28;3.20;99.90
13322;DHT22;6730;46.248;6.930;2022-12-07T04:58:54;3.30;99.90
13322;DHT22;6730;46.248;6.930;2022-12-07T05:01:21;3.50;99.90
13322;DHT22;6730;46.248;6.930;2022-12-07T05:03:47;3.30;99.90
13322;DHT22;6730;46.248;6.930;2022-12-07T05:06:13;3.20;99.90
13322;DHT22;6730;46.248;6.930;2022-12-07T05:08:40;3.20;99.90
13322;DHT22;6730;46.248;6.930;2022-12-07T05:11:07;3.00;99.90
13322;DHT22;6730;46.248;6.930;2022-12-07T05:13:33;2.80;99.90
13322;DHT22;6730;46.248;6.930;2022-12-07T05:15:59;2.70;99.90
13322;DHT22;6730;46.248;6.930;2022-12-07T05:18:25;2.40;99.90
13322;DHT22;6730;46.248;6.930;2022-12-07T05:20:51;2.50;99.90
13322;DHT22;6730;46.248;6.930;2022-12-07T05:23:17;2.60;99.90
13322;DHT22;6730;46.248;6.930;2022-12-07T05:25:43;2.20;99.90
13322;DHT22;6730;46.248;6.930;2022-12-07T05:28:09;2.00;99.90
13322;DHT22;6730;46.248;6.930;2022-12-07T05:30:35;1.90;99.90
13322;DHT22;6730;46.248;6.930;2022-12-07T05:33:01;1.80;99.90
13322;DHT22;6730;46.248;6.930;2022-12-07T05:35:28;1.70;99.90
13322;DHT22;6730;46.248;6.930;2022-12-07T05:37:55;1.80;99.90
13322;DHT22;6730;46.248;6.930;2022-12-07T05:40:20;2.00;99.90
13322;DHT22;6730;46.248;6.930;2022-12-07T05:42:46;2.00;99.90
13322;DHT22;6730;46.248;6.930;2022-12-07T05:45:12;2.10;99.90
13322;DHT22;6730;46.248;6.930;2022-12-07T05:47:38;2.00;99.90
13322;DHT22;6730;46.248;6.930;2022-12-07T05:50:05;2.00;99.90
13322;DHT22;6730;46.248;6.930;2022-12-07T05:52:31;1.90;99.90
13322;DHT22;6730;46.248;6.930;2022-12-07T05:54:57;2.00;99.90
13322;DHT22;6730;46.248;6.930;2022-12-07T05:57:23;2.00;99.90
13322;DHT22;6730;46.248;6.930;2022-12-07T05:59:49;2.10;99.90
13322;DHT22;6730;46.248;6.930;2022-12-07T06:02:15;2.00;99.90
13322;DHT22;6730;46.248;6.930;2022-12-07T06:04:46;1.90;99.90
13322;DHT22;6730;46.248;6.930;2022-12-07T06:07:13;2.30;99.90
13322;DHT22;6730;46.248;6.930;2022-12-07T06:09:40;2.40;99.90
13322;DHT22;6730;46.248;6.930;2022-12-07T06:12:06;2.50;99.90
13322;DHT22;6730;46.248;6.930;2022-12-07T06:14:52;2.80;99.90
13322;DHT22;6730;46.248;6.930;2022-12-07T06:17:18;2.70;99.90
13322;DHT22;6730;46.248;6.930;2022-12-07T06:19:44;2.60;99.90
13322;DHT22;6730;46.248;6.930;2022-12-07T06:22:10;2.60;99.90
13322;DHT22;6730;46.248;6.930;2022-12-07T06:24:37;2.70;99.90
13322;DHT22;6730;46.248;6.930;2022-12-07T06:27:03;2.60;99.90
13322;DHT22;6730;46.248;6.930;2022-12-07T06:29:30;2.30;99.90
13322;DHT22;6730;46.248;6.930;2022-12-07T06:31:56;2.50;99.90
13322;DHT22;6730;46.248;6.930;2022-12-07T06:34:22;2.50;99.90
13322;DHT22;6730;46.248;6.930;2022-12-07T06:36:49;2.60;99.90
13322;DHT22;6730;46.248;6.930;2022-12-07T06:39:22;2.40;99.90
13322;DHT22;6730;46.248;6.930;2022-12-07T06:41:48;2.50;99.90
13322;DHT22;6730;46.248;6.930;2022-12-07T06:44:15;2.50;99.90
13322;DHT22;6730;46.248;6.930;2022-12-07T06:46:40;2.70;99.90
13322;DHT22;6730;46.248;6.930;2022-12-07T06:49:06;2.70;99.90
13322;DHT22;6730;46.248;6.930;2022-12-07T06:51:33;2.70;99.90
13322;DHT22;6730;46.248;6.930;2022-12-07T06:54:00;2.70;99.90
13322;DHT22;6730;46.248;6.930;2022-12-07T06:56:26;2.60;99.90
13322;DHT22;6730;46.248;6.930;2022-12-07T06:58:51;2.60;99.90
13322;DHT22;6730;46.248;6.930;2022-12-07T07:01:18;2.50;99.90
13322;DHT22;6730;46.248;6.930;2022-12-07T07:03:44;2.30;99.90
13322;DHT22;6730;46.248;6.930;2022-12-07T07:06:11;2.40;99.90
13322;DHT22;6730;46.248;6.930;2022-12-07T07:08:38;2.60;99.90
13322;DHT22;6730;46.248;6.930;2022-12-07T07:11:04;2.70;99.90
13322;DHT22;6730;46.248;6.930;2022-12-07T07:13:30;2.80;99.90
13322;DHT22;6730;46.248;6.930;2022-12-07T07:15:56;3.10;99.90
13322;DHT22;6730;46.248;6.930;2022-12-07T07:30:07;3.20;99.90
13322;DHT22;6730;46.248;6.930;2022-12-07T07:32:33;3.80;99.90
13322;DHT22;6730;46.248;6.930;2022-12-07T07:34:58;3.60;99.90
13322;DHT22;6730;46.248;6.930;2022-12-07T07:37:24;3.40;99.90
13322;DHT22;6730;46.248;6.930;2022-12-07T07:39:50;3.20;99.90
13322;DHT22;6730;46.248;6.930;2022-12-07T07:42:16;2.50;99.90
13322;DHT22;6730;46.248;6.930;2022-12-07T07:44:41;1.80;99.90
13322;DHT22;6730;46.248;6.930;2022-12-07T07:47:07;1.60;99.90
13322;DHT22;6730;46.248;6.930;2022-12-07T07:49:33;1.40;99.90
13322;DHT22;6730;46.248;6.930;2022-12-07T07:51:58;1.40;99.90
13322;DHT22;6730;46.248;6.930;2022-12-07T07:54:24;1.60;99.90
13322;DHT22;6730;46.248;6.930;2022-12-07T07:56:50;1.70;99.90
13322;DHT22;6730;46.248;6.930;2022-12-07T07:59:16;1.60;99.90
13322;DHT22;6730;46.248;6.930;2022-12-07T08:01:41;1.40;99.90
13322;DHT22;6730;46.248;6.930;2022-12-07T08:04:07;1.40;99.90
13322;DHT22;6730;46.248;6.930;2022-12-07T08:06:33;1.30;99.90
13322;DHT22;6730;46.248;6.930;2022-12-07T08:08:58;1.20;99.90
13322;DHT22;6730;46.248;6.930;2022-12-07T08:11:24;1.30;99.90
13322;DHT22;6730;46.248;6.930;2022-12-07T08:13:50;1.20;99.90
13322;DHT22;6730;46.248;6.930;2022-12-07T08:16:16;1.30;99.90
13322;DHT22;6730;46.248;6.930;2022-12-07T08:18:42;1.30;99.90
13322;DHT22;6730;46.248;6.930;2022-12-07T08:21:12;1.60;99.90
13322;DHT22;6730;46.248;6.930;2022-12-07T08:23:38;1.70;99.90
13322;DHT22;6730;46.248;6.930;2022-12-07T08:26:06;1.70;99.90
13322;DHT22;6730;46.248;6.930;2022-12-07T08:28:32;1.60;99.90
13322;DHT22;6730;46.248;6.930;2022-12-07T08:31:10;1.60;99.90
13322;DHT22;6730;46.248;6.930;2022-12-07T08:33:37;1.70;99.90
13322;DHT22;6730;46.248;6.930;2022-12-07T08:36:10;1.70;99.90
13322;DHT22;6730;46.248;6.930;2022-12-07T08:38:38;1.70;99.90
13322;DHT22;6730;46.248;6.930;2022-12-07T08:41:04;1.80;99.90
13322;DHT22;6730;46.248;6.930;2022-12-07T08:43:30;1.60;99.90
13322;DHT22;6730;46.248;6.930;2022-12-07T08:46:28;1.50;99.90
13322;DHT22;6730;46.248;6.930;2022-12-07T08:49:05;1.40;99.90
13322;DHT22;6730;46.248;6.930;2022-12-07T08:51:32;1.60;99.90
13322;DHT22;6730;46.248;6.930;2022-12-07T08:53:59;1.60;99.90
13322;DHT22;6730;46.248;6.930;2022-12-07T08:56:26;1.50;99.90
13322;DHT22;6730;46.248;6.930;2022-12-07T08:58:53;1.70;99.90
13322;DHT22;6730;46.248;6.930;2022-12-07T09:01:18;1.80;99.90
13322;DHT22;6730;46.248;6.930;2022-12-07T09:03:44;1.80;99.90
13322;DHT22;6730;46.248;6.930;2022-12-07T09:06:10;1.90;99.90
13322;DHT22;6730;46.248;6.930;2022-12-07T09:08:46;2.10;99.90
13322;DHT22;6730;46.248;6.930;2022-12-07T09:11:12;2.20;99.90
13322;DHT22;6730;46.248;6.930;2022-12-07T09:13:38;2.20;99.90
13322;DHT22;6730;46.248;6.930;2022-12-07T09:16:04;2.30;99.90
13322;DHT22;6730;46.248;6.930;2022-12-07T09:18:30;2.00;99.90
13322;DHT22;6730;46.248;6.930;2022-12-07T09:20:56;2.00;99.90
13322;DHT22;6730;46.248;6.930;2022-12-07T09:23:22;1.80;99.90
13322;DHT22;6730;46.248;6.930;2022-12-07T09:25:47;1.90;99.90
13322;DHT22;6730;46.248;6.930;2022-12-07T09:28:13;2.30;99.90
13322;DHT22;6730;46.248;6.930;2022-12-07T09:30:39;2.20;99.90
13322;DHT22;6730;46.248;6.930;2022-12-07T09:33:10;1.90;99.90
13322;DHT22;6730;46.248;6.930;2022-12-07T09:35:35;1.70;99.90
13322;DHT22;6730;46.248;6.930;2022-12-07T09:38:01;1.60;99.90
13322;DHT22;6730;46.248;6.930;2022-12-07T09:40:28;1.60;99.90
13322;DHT22;6730;46.248;6.930;2022-12-07T09:42:55;1.60;99.90
13322;DHT22;6730;46.248;6.930;2022-12-07T09:45:24;1.60;99.90
13322;DHT22;6730;46.248;6.930;2022-12-07T09:47:50;1.70;99.90
13322;DHT22;6730;46.248;6.930;2022-12-07T09:50:23;1.70;99.90
13322;DHT22;6730;46.248;6.930;2022-12-07T09:52:50;1.70;99.90
13322;DHT22;6730;46.248;6.930;2022-12-07T09:55:28;1.60;99.90
13322;DHT22;6730;46.248;6.930;2022-12-07T09:57:55;1.60;99.90
13322;DHT22;6730;46.248;6.930;2022-12-07T10:00:23;1.60;99.90
13322;DHT22;6730;46.248;6.930;2022-12-07T10:03:00;1.50;99.90
13322;DHT22;6730;46.248;6.930;2022-12-07T10:07:59;1.80;99.90
13322;DHT22;6730;46.248;6.930;2022-12-07T10:10:29;1.70;99.90
13322;DHT22;6730;46.248;6.930;2022-12-07T10:12:59;1.60;99.90
13322;DHT22;6730;46.248;6.930;2022-12-07T10:18:31;1.60;99.90
13322;DHT22;6730;46.248;6.930;2022-12-07T10:21:20;1.60;99.90
13322;DHT22;6730;46.248;6.930;2022-12-07T10:29:12;1.60;99.90
13322;DHT22;6730;46.248;6.930;2022-12-07T10:31:40;1.70;99.90
13322;DHT22;6730;46.248;6.930;2022-12-07T10:34:25;1.80;99.90
13322;DHT22;6730;46.248;6.930;2022-12-07T10:36:52;1.90;99.90
13322;DHT22;6730;46.248;6.930;2022-12-07T10:39:20;1.90;99.90
13322;DHT22;6730;46.248;6.930;2022-12-07T10:41:57;2.00;99.90
13322;DHT22;6730;46.248;6.930;2022-12-07T10:44:26;1.90;99.90
13322;DHT22;6730;46.248;6.930;2022-12-07T10:52:49;2.00;99.90
13322;DHT22;6730;46.248;6.930;2022-12-07T10:55:33;2.40;99.90
13322;DHT22;6730;46.248;6.930;2022-12-07T11:00:56;2.20;99.90
13322;DHT22;6730;46.248;6.930;2022-12-07T11:03:27;1.80;99.90
13322;DHT22;6730;46.248;6.930;2022-12-07T11:11:39;1.60;99.90
13322;DHT22;6730;46.248;6.930;2022-12-07T11:14:40;1.70;99.90
13322;DHT22;6730;46.248;6.930;2022-12-07T11:17:24;1.90;99.90
13322;DHT22;6730;46.248;6.930;2022-12-07T11:25:34;2.00;99.90
13322;DHT22;6730;46.248;6.930;2022-12-07T11:33:21;2.30;99.90
13322;DHT22;6730;46.248;6.930;2022-12-07T11:38:35;3.30;99.90
13322;DHT22;6730;46.248;6.930;2022-12-07T11:41:05;3.90;99.90
13322;DHT22;6730;46.248;6.930;2022-12-07T11:46:45;5.40;99.90
13322;DHT22;6730;46.248;6.930;2022-12-07T11:49:14;5.30;99.90
13322;DHT22;6730;46.248;6.930;2022-12-07T11:51:41;5.10;99.90
13322;DHT22;6730;46.248;6.930;2022-12-07T11:54:26;5.00;99.90
13322;DHT22;6730;46.248;6.930;2022-12-07T11:56:54;5.80;99.90
13322;DHT22;6730;46.248;6.930;2022-12-07T12:02:16;6.40;99.90
13322;DHT22;6730;46.248;6.930;2022-12-07T12:07:27;6.00;99.90
13322;DHT22;6730;46.248;6.930;2022-12-07T12:10:02;5.70;99.90
13322;DHT22;6730;46.248;6.930;2022-12-07T12:18:01;4.30;99.90
13322;DHT22;6730;46.248;6.930;2022-12-07T12:20:50;4.40;99.90
13322;DHT22;6730;46.248;6.930;2022-12-07T12:23:39;4.00;99.90
13322;DHT22;6730;46.248;6.930;2022-12-07T12:26:08;3.90;99.90
13322;DHT22;6730;46.248;6.930;2022-12-07T12:28:42;4.10;99.90
13322;DHT22;6730;46.248;6.930;2022-12-07T12:31:15;4.40;99.90
13322;DHT22;6730;46.248;6.930;2022-12-07T12:33:44;4.40;99.90
13322;DHT22;6730;46.248;6.930;2022-12-07T12:36:30;4.70;99.90
13322;DHT22;6730;46.248;6.930;2022-12-07T12:39:16;5.10;99.90
13322;DHT22;6730;46.248;6.930;2022-12-07T12:47:01;4.40;99.90
13322;DHT22;6730;46.248;6.930;2022-12-07T12:49:34;4.60;99.90
13322;DHT22;6730;46.248;6.930;2022-12-07T12:54:34;5.10;99.90
13322;DHT22;6730;46.248;6.930;2022-12-07T12:59:32;5.00;99.90
13322;DHT22;6730;46.248;6.930;2022-12-07T13:04:52;4.60;99.90
13322;DHT22;6730;46.248;6.930;2022-12-07T13:10:40;3.80;99.90
13322;DHT22;6730;46.248;6.930;2022-12-07T13:15:46;4.00;99.90
13322;DHT22;6730;46.248;6.930;2022-12-07T13:23:54;3.90;99.90
13322;DHT22;6730;46.248;6.930;2022-12-07T13:26:24;3.80;99.90
13322;DHT22;6730;46.248;6.930;2022-12-07T13:29:04;3.60;99.90
13322;DHT22;6730;46.248;6.930;2022-12-07T13:31:32;3.40;99.90
13322;DHT22;6730;46.248;6.930;2022-12-07T13:33:59;3.20;99.90
13322;DHT22;6730;46.248;6.930;2022-12-07T13:36:27;3.00;99.90
13322;DHT22;6730;46.248;6.930;2022-12-07T13:38:59;3.10;99.90
13322;DHT22;6730;46.248;6.930;2022-12-07T13:41:29;3.10;99.90
13322;DHT22;6730;46.248;6.930;2022-12-07T13:46:40;3.00;99.90
13322;DHT22;6730;46.248;6.930;2022-12-07T13:49:38;3.00;99.90
13322;DHT22;6730;46.248;6.930;2022-12-07T13:52:17;3.20;99.90
13322;DHT22;6730;46.248;6.930;2022-12-07T13:57:30;3.50;99.90
13322;DHT22;6730;46.248;6.930;2022-12-07T13:59:57;3.50;99.90
13322;DHT22;6730;46.248;6.930;2022-12-07T14:02:32;3.80;99.90
13322;DHT22;6730;46.248;6.930;2022-12-07T14:05:09;4.20;99.90
13322;DHT22;6730;46.248;6.930;2022-12-07T14:07:36;4.70;99.90
13322;DHT22;6730;46.248;6.930;2022-12-07T14:10:29;5.00;99.90
13322;DHT22;6730;46.248;6.930;2022-12-07T14:12:56;5.20;99.90
13322;DHT22;6730;46.248;6.930;2022-12-07T14:15:30;5.40;99.90
13322;DHT22;6730;46.248;6.930;2022-12-07T14:17:58;5.40;99.90
13322;DHT22;6730;46.248;6.930;2022-12-07T14:23:02;5.60;99.90
13322;DHT22;6730;46.248;6.930;2022-12-07T14:25:45;5.60;99.90
13322;DHT22;6730;46.248;6.930;2022-12-07T14:28:32;5.60;99.90
13322;DHT22;6730;46.248;6.930;2022-12-07T14:30:58;5.60;99.90
13322;DHT22;6730;46.248;6.930;2022-12-07T14:33:24;5.70;99.90
13322;DHT22;6730;46.248;6.930;2022-12-07T14:35:50;5.80;99.90
13322;DHT22;6730;46.248;6.930;2022-12-07T14:38:21;5.20;99.90
13322;DHT22;6730;46.248;6.930;2022-12-07T14:40:48;4.60;99.90
13322;DHT22;6730;46.248;6.930;2022-12-07T14:43:16;3.60;99.90
13322;DHT22;6730;46.248;6.930;2022-12-07T14:45:42;3.70;99.90
13322;DHT22;6730;46.248;6.930;2022-12-07T14:48:13;4.10;99.90
13322;DHT22;6730;46.248;6.930;2022-12-07T14:50:50;4.40;99.90
13322;DHT22;6730;46.248;6.930;2022-12-07T14:53:19;4.80;99.90
13322;DHT22;6730;46.248;6.930;2022-12-07T14:55:45;4.80;99.90
13322;DHT22;6730;46.248;6.930;2022-12-07T14:58:16;5.00;99.90
13322;DHT22;6730;46.248;6.930;2022-12-07T15:00:43;5.10;99.90
13322;DHT22;6730;46.248;6.930;2022-12-07T15:03:10;3.80;99.90
13322;DHT22;6730;46.248;6.930;2022-12-07T15:05:36;2.70;99.90
13322;DHT22;6730;46.248;6.930;2022-12-07T15:08:02;2.30;99.90
13322;DHT22;6730;46.248;6.930;2022-12-07T15:10:30;2.30;99.90
13322;DHT22;6730;46.248;6.930;2022-12-07T15:13:02;2.40;99.90
13322;DHT22;6730;46.248;6.930;2022-12-07T15:15:54;2.30;99.90
13322;DHT22;6730;46.248;6.930;2022-12-07T15:18:22;2.00;99.90
13322;DHT22;6730;46.248;6.930;2022-12-07T15:20:49;2.00;99.90
13322;DHT22;6730;46.248;6.930;2022-12-07T15:23:15;1.90;99.90
13322;DHT22;6730;46.248;6.930;2022-12-07T15:25:42;1.90;99.90
13322;DHT22;6730;46.248;6.930;2022-12-07T15:28:08;2.20;99.90
13322;DHT22;6730;46.248;6.930;2022-12-07T15:30:34;2.50;99.90
13322;DHT22;6730;46.248;6.930;2022-12-07T15:32:59;2.90;99.90
13322;DHT22;6730;46.248;6.930;2022-12-07T15:35:25;3.30;99.90
13322;DHT22;6730;46.248;6.930;2022-12-07T15:37:51;3.40;99.90
13322;DHT22;6730;46.248;6.930;2022-12-07T15:40:17;3.90;99.90
13322;DHT22;6730;46.248;6.930;2022-12-07T15:42:42;3.90;99.90
13322;DHT22;6730;46.248;6.930;2022-12-07T15:45:08;3.80;99.90
13322;DHT22;6730;46.248;6.930;2022-12-07T15:47:41;3.80;99.90
13322;DHT22;6730;46.248;6.930;2022-12-07T15:50:10;3.90;99.90
13322;DHT22;6730;46.248;6.930;2022-12-07T15:52:36;4.00;99.90
13322;DHT22;6730;46.248;6.930;2022-12-07T15:55:03;4.30;99.90
13322;DHT22;6730;46.248;6.930;2022-12-07T15:57:35;4.50;99.90
13322;DHT22;6730;46.248;6.930;2022-12-07T16:00:05;4.50;99.90
13322;DHT22;6730;46.248;6.930;2022-12-07T16:02:31;4.30;99.90
13322;DHT22;6730;46.248;6.930;2022-12-07T16:04:57;4.10;99.90
13322;DHT22;6730;46.248;6.930;2022-12-07T16:07:23;3.30;99.90
13322;DHT22;6730;46.248;6.930;2022-12-07T16:09:49;3.00;99.90
13322;DHT22;6730;46.248;6.930;2022-12-07T16:12:15;3.20;99.90
13322;DHT22;6730;46.248;6.930;2022-12-07T16:14:41;3.10;99.90
13322;DHT22;6730;46.248;6.930;2022-12-07T16:17:08;3.20;99.90
13322;DHT22;6730;46.248;6.930;2022-12-07T16:19:35;3.40;99.90
13322;DHT22;6730;46.248;6.930;2022-12-07T16:22:01;3.20;99.90
13322;DHT22;6730;46.248;6.930;2022-12-07T16:24:27;3.30;99.90
13322;DHT22;6730;46.248;6.930;2022-12-07T16:26:53;3.60;99.90
13322;DHT22;6730;46.248;6.930;2022-12-07T16:29:20;3.90;99.90
13322;DHT22;6730;46.248;6.930;2022-12-07T16:31:48;4.00;99.90
13322;DHT22;6730;46.248;6.930;2022-12-07T16:34:14;4.30;99.90
13322;DHT22;6730;46.248;6.930;2022-12-07T16:36:39;4.40;99.90
13322;DHT22;6730;46.248;6.930;2022-12-07T16:39:06;4.40;99.90
13322;DHT22;6730;46.248;6.930;2022-12-07T16:41:32;4.60;99.90
13322;DHT22;6730;46.248;6.930;2022-12-07T16:44:03;4.80;99.90
13322;DHT22;6730;46.248;6.930;2022-12-07T16:46:31;4.80;99.90
13322;DHT22;6730;46.248;6.930;2022-12-07T16:48:57;4.80;99.90
13322;DHT22;6730;46.248;6.930;2022-12-07T16:51:23;4.90;99.90
13322;DHT22;6730;46.248;6.930;2022-12-07T16:53:52;5.00;99.90
13322;DHT22;6730;46.248;6.930;2022-12-07T16:56:18;4.50;99.90
13322;DHT22;6730;46.248;6.930;2022-12-07T16:58:44;4.10;99.90
13322;DHT22;6730;46.248;6.930;2022-12-07T17:01:13;4.00;99.90
13322;DHT22;6730;46.248;6.930;2022-12-07T17:03:40;4.10;99.90
13322;DHT22;6730;46.248;6.930;2022-12-07T17:06:16;4.20;99.90
13322;DHT22;6730;46.248;6.930;2022-12-07T17:08:43;3.90;99.90
13322;DHT22;6730;46.248;6.930;2022-12-07T17:11:19;3.80;99.90
13322;DHT22;6730;46.248;6.930;2022-12-07T17:13:48;3.20;99.90
13322;DHT22;6730;46.248;6.930;2022-12-07T17:16:33;2.70;99.90
13322;DHT22;6730;46.248;6.930;2022-12-07T17:18:59;2.70;99.90
13322;DHT22;6730;46.248;6.930;2022-12-07T17:21:25;2.60;99.90
13322;DHT22;6730;46.248;6.930;2022-12-07T17:23:51;2.40;99.90
13322;DHT22;6730;46.248;6.930;2022-12-07T17:26:20;2.40;99.90
13322;DHT22;6730;46.248;6.930;2022-12-07T17:28:46;2.20;99.90
13322;DHT22;6730;46.248;6.930;2022-12-07T17:31:13;1.90;99.90
13322;DHT22;6730;46.248;6.930;2022-12-07T17:33:39;1.70;99.90
13322;DHT22;6730;46.248;6.930;2022-12-07T17:36:13;1.60;99.90
13322;DHT22;6730;46.248;6.930;2022-12-07T17:38:39;1.70;99.90
13322;DHT22;6730;46.248;6.930;2022-12-07T17:41:14;2.20;99.90
13322;DHT22;6730;46.248;6.930;2022-12-07T17:43:58;2.70;99.90
13322;DHT22;6730;46.248;6.930;2022-12-07T17:46:24;3.20;99.90
13322;DHT22;6730;46.248;6.930;2022-12-07T17:48:50;3.50;99.90
13322;DHT22;6730;46.248;6.930;2022-12-07T17:51:18;3.70;99.90
13322;DHT22;6730;46.248;6.930;2022-12-07T17:54:02;3.70;99.90
13322;DHT22;6730;46.248;6.930;2022-12-07T17:56:28;3.50;99.90
13322;DHT22;6730;46.248;6.930;2022-12-07T17:58:54;3.40;99.90
13322;DHT22;6730;46.248;6.930;2022-12-07T18:01:19;3.30;99.90
13322;DHT22;6730;46.248;6.930;2022-12-07T18:03:45;3.20;99.90
13322;DHT22;6730;46.248;6.930;2022-12-07T18:06:11;3.50;99.90
13322;DHT22;6730;46.248;6.930;2022-12-07T18:08:36;3.50;99.90
13322;DHT22;6730;46.248;6.930;2022-12-07T18:11:04;3.60;99.90
13322;DHT22;6730;46.248;6.930;2022-12-07T18:13:32;3.70;99.90
13322;DHT22;6730;46.248;6.930;2022-12-07T18:16:03;3.80;99.90
13322;DHT22;6730;46.248;6.930;2022-12-07T18:18:29;3.90;99.90
13322;DHT22;6730;46.248;6.930;2022-12-07T18:20:55;3.90;99.90
13322;DHT22;6730;46.248;6.930;2022-12-07T18:23:20;4.00;99.90
13322;DHT22;6730;46.248;6.930;2022-12-07T18:25:47;3.90;99.90
13322;DHT22;6730;46.248;6.930;2022-12-07T18:28:13;3.60;99.90
13322;DHT22;6730;46.248;6.930;2022-12-07T18:30:39;3.60;99.90
13322;DHT22;6730;46.248;6.930;2022-12-07T18:33:05;3.60;99.90
13322;DHT22;6730;46.248;6.930;2022-12-07T18:35:31;3.30;99.90